sensor_id;sensor_type;location;lat;lon;timestamp;temperature;humidity
15357;DHT22;7778;48.792;9.260;2023-12-07T00:00:35;3.30;99.90
15357;DHT22;7778;48.792;9.260;2023-12-07T00:03:22;3.40;99.90
15357;DHT22;7778;48.792;9.260;2023-12-07T00:06:08;3.60;99.90
15357;DHT22;7778;48.792;9.260;2023-12-07T00:08:53;3.40;99.90
15357;DHT22;7778;48.792;9.260;2023-12-07T00:11:39;3.40;99.90
15357;DHT22;7778;48.792;9.260;2023-12-07T00:14:25;3.40;99.90
15357;DHT22;7778;48.792;9.260;2023-12-07T00:17:10;3.50;99.90
15357;DHT22;7778;48.792;9.260;2023-12-07T00:19:57;3.40;99.90
15357;DHT22;7778;48.792;9.260;2023-12-07T00:22:43;3.30;99.90
15357;DHT22;7778;48.792;9.260;2023-12-07T00:25:29;3.20;99.90
15357;DHT22;7778;48.792;9.260;2023-12-07T00:28:15;3.10;99.90
15357;DHT22;7778;48.792;9.260;2023-12-07T00:31:00;3.10;99.90
15357;DHT22;7778;48.792;9.260;2023-12-07T00:33:46;3.20;99.90
15357;DHT22;7778;48.792;9.260;2023-12-07T00:36:33;3.40;99.90
15357;DHT22;7778;48.792;9.260;2023-12-07T00:39:19;3.50;99.90
15357;DHT22;7778;48.792;9.260;2023-12-07T00:42:05;3.50;99.90
15357;DHT22;7778;48.792;9.260;2023-12-07T00:44:50;3.50;99.90
15357;DHT22;7778;48.792;9.260;2023-12-07T00:47:36;3.40;99.90
15357;DHT22;7778;48.792;9.260;2023-12-07T00:50:21;3.20;99.90
15357;DHT22;7778;48.792;9.260;2023-12-07T00:53:08;3.30;99.90
15357;DHT22;7778;48.792;9.260;2023-12-07T00:55:54;3.20;99.90
15357;DHT22;7778;48.792;9.260;2023-12-07T00:58:40;3.20;99.90
15357;DHT22;7778;48.792;9.260;2023-12-07T01:01:25;3.30;99.90
15357;DHT22;7778;48.792;9.260;2023-12-07T01:04:11;3.30;99.90
15357;DHT22;7778;48.792;9.260;2023-12-07T01:06:57;3.50;99.90
15357;DHT22;7778;48.792;9.260;2023-12-07T01:09:43;3.60;99.90
15357;DHT22;7778;48.792;9.260;2023-12-07T01:12:30;3.70;99.90
15357;DHT22;7778;48.792;9.260;2023-12-07T01:15:15;3.80;99.90
15357;DHT22;7778;48.792;9.260;2023-12-07T01:18:02;3.80;99.90
15357;DHT22;7778;48.792;9.260;2023-12-07T01:20:47;3.70;99.90
15357;DHT22;7778;48.792;9.260;2023-12-07T01:23:33;3.50;99.90
15357;DHT22;7778;48.792;9.260;2023-12-07T01:26:20;3.30;99.90
15357;DHT22;7778;48.792;9.260;2023-12-07T01:29:06;3.30;99.90
15357;DHT22;7778;48.792;9.260;2023-12-07T01:31:53;3.50;99.90
15357;DHT22;7778;48.792;9.260;2023-12-07T01:34:38;3.60;99.90
15357;DHT22;7778;48.792;9.260;2023-12-07T01:37:24;3.50;99.90
15357;DHT22;7778;48.792;9.260;2023-12-07T01:40:11;3.20;99.90
15357;DHT22;7778;48.792;9.260;2023-12-07T01:43:00;3.30;99.90
15357;DHT22;7778;48.792;9.260;2023-12-07T01:45:46;3.40;99.90
15357;DHT22;7778;48.792;9.260;2023-12-07T01:48:35;3.40;99.90
15357;DHT22;7778;48.792;9.260;2023-12-07T01:51:20;3.50;99.90
15357;DHT22;7778;48.792;9.260;2023-12-07T01:54:06;3.60;99.90
15357;DHT22;7778;48.792;9.260;2023-12-07T01:56:53;3.60;99.90
15357;DHT22;7778;48.792;9.260;2023-12-07T01:59:41;3.60;99.90
15357;DHT22;7778;48.792;9.260;2023-12-07T02:02:27;3.70;99.90
15357;DHT22;7778;48.792;9.260;2023-12-07T02:05:13;3.60;99.90
15357;DHT22;7778;48.792;9.260;2023-12-07T02:07:59;3.60;99.90
15357;DHT22;7778;48.792;9.260;2023-12-07T02:10:45;3.60;99.90
15357;DHT22;7778;48.792;9.260;2023-12-07T02:13:30;3.60;99.90
15357;DHT22;7778;48.792;9.260;2023-12-07T02:16:23;3.70;99.90
15357;DHT22;7778;48.792;9.260;2023-12-07T02:19:34;3.60;99.90
15357;DHT22;7778;48.792;9.260;2023-12-07T02:22:38;3.60;99.90
15357;DHT22;7778;48.792;9.260;2023-12-07T02:25:32;3.60;99.90
15357;DHT22;7778;48.792;9.260;2023-12-07T02:28:23;3.60;99.90
15357;DHT22;7778;48.792;9.260;2023-12-07T02:31:08;3.60;99.90
15357;DHT22;7778;48.792;9.260;2023-12-07T02:33:54;3.60;99.90
15357;DHT22;7778;48.792;9.260;2023-12-07T02:36:40;3.40;99.90
15357;DHT22;7778;48.792;9.260;2023-12-07T02:39:27;3.40;99.90
15357;DHT22;7778;48.792;9.260;2023-12-07T02:42:16;3.30;99.90
15357;DHT22;7778;48.792;9.260;2023-12-07T02:45:05;3.20;99.90
15357;DHT22;7778;48.792;9.260;2023-12-07T02:47:52;3.20;99.90
15357;DHT22;7778;48.792;9.260;2023-12-07T02:50:38;3.20;99.90
15357;DHT22;7778;48.792;9.260;2023-12-07T02:53:24;3.20;99.90
15357;DHT22;7778;48.792;9.260;2023-12-07T02:56:10;3.10;99.90
15357;DHT22;7778;48.792;9.260;2023-12-07T02:58:55;3.10;99.90
15357;DHT22;7778;48.792;9.260;2023-12-07T03:01:42;3.00;99.90
15357;DHT22;7778;48.792;9.260;2023-12-07T03:04:28;2.90;99.90
15357;DHT22;7778;48.792;9.260;2023-12-07T03:07:14;2.70;99.90
15357;DHT22;7778;48.792;9.260;2023-12-07T03:10:00;2.70;99.90
15357;DHT22;7778;48.792;9.260;2023-12-07T03:12:46;2.70;99.90
15357;DHT22;7778;48.792;9.260;2023-12-07T03:15:32;2.70;99.90
15357;DHT22;7778;48.792;9.260;2023-12-07T03:18:19;2.60;99.90
15357;DHT22;7778;48.792;9.260;2023-12-07T03:21:05;2.50;99.90
15357;DHT22;7778;48.792;9.260;2023-12-07T03:23:51;2.50;99.90
15357;DHT22;7778;48.792;9.260;2023-12-07T03:26:37;2.40;99.90
15357;DHT22;7778;48.792;9.260;2023-12-07T03:29:23;2.30;99.90
15357;DHT22;7778;48.792;9.260;2023-12-07T03:32:08;2.30;99.90
15357;DHT22;7778;48.792;9.260;2023-12-07T03:34:55;2.20;99.90
15357;DHT22;7778;48.792;9.260;2023-12-07T03:37:41;2.30;99.90
15357;DHT22;7778;48.792;9.260;2023-12-07T03:40:27;2.30;99.90
15357;DHT22;7778;48.792;9.260;2023-12-07T03:43:12;2.40;99.90
15357;DHT22;7778;48.792;9.260;2023-12-07T03:45:57;2.40;99.90
15357;DHT22;7778;48.792;9.260;2023-12-07T03:48:43;2.40;99.90
15357;DHT22;7778;48.792;9.260;2023-12-07T03:51:30;2.40;99.90
15357;DHT22;7778;48.792;9.260;2023-12-07T03:54:16;2.30;99.90
15357;DHT22;7778;48.792;9.260;2023-12-07T03:57:04;2.30;99.90
15357;DHT22;7778;48.792;9.260;2023-12-07T03:59:49;2.30;99.90
15357;DHT22;7778;48.792;9.260;2023-12-07T04:02:36;2.20;99.90
15357;DHT22;7778;48.792;9.260;2023-12-07T04:05:21;2.10;99.90
15357;DHT22;7778;48.792;9.260;2023-12-07T04:08:08;1.80;99.90
15357;DHT22;7778;48.792;9.260;2023-12-07T04:10:54;1.70;99.90
15357;DHT22;7778;48.792;9.260;2023-12-07T04:13:40;1.90;99.90
15357;DHT22;7778;48.792;9.260;2023-12-07T04:16:26;2.10;99.90
15357;DHT22;7778;48.792;9.260;2023-12-07T04:19:12;1.90;99.90
15357;DHT22;7778;48.792;9.260;2023-12-07T04:21:57;1.70;99.90
15357;DHT22;7778;48.792;9.260;2023-12-07T04:24:44;1.60;99.90
15357;DHT22;7778;48.792;9.260;2023-12-07T04:27:35;1.50;99.90
15357;DHT22;7778;48.792;9.260;2023-12-07T04:30:20;1.70;99.90
15357;DHT22;7778;48.792;9.260;2023-12-07T04:33:08;1.70;99.90
15357;DHT22;7778;48.792;9.260;2023-12-07T04:35:53;1.70;99.90
15357;DHT22;7778;48.792;9.260;2023-12-07T04:38:39;1.70;99.90
15357;DHT22;7778;48.792;9.260;2023-12-07T04:41:26;1.40;99.90
15357;DHT22;7778;48.792;9.260;2023-12-07T04:44:11;1.40;99.90
15357;DHT22;7778;48.792;9.260;2023-12-07T04:46:57;1.30;99.90
15357;DHT22;7778;48.792;9.260;2023-12-07T04:49:43;1.20;99.90
15357;DHT22;7778;48.792;9.260;2023-12-07T04:52:28;1.20;99.90
15357;DHT22;7778;48.792;9.260;2023-12-07T04:55:14;1.10;99.90
15357;DHT22;7778;48.792;9.260;2023-12-07T04:58:03;1.00;99.90
15357;DHT22;7778;48.792;9.260;2023-12-07T05:00:50;1.10;99.90
15357;DHT22;7778;48.792;9.260;2023-12-07T05:03:35;1.10;99.90
15357;DHT22;7778;48.792;9.260;2023-12-07T05:06:21;1.20;99.90
15357;DHT22;7778;48.792;9.260;2023-12-07T05:09:13;1.30;99.90
15357;DHT22;7778;48.792;9.260;2023-12-07T05:11:59;1.30;99.90
15357;DHT22;7778;48.792;9.260;2023-12-07T05:14:46;1.30;99.90
15357;DHT22;7778;48.792;9.260;2023-12-07T05:17:32;1.30;99.90
15357;DHT22;7778;48.792;9.260;2023-12-07T05:20:17;1.10;99.90
15357;DHT22;7778;48.792;9.260;2023-12-07T05:23:06;1.10;99.90
15357;DHT22;7778;48.792;9.260;2023-12-07T05:25:52;1.10;99.90
15357;DHT22;7778;48.792;9.260;2023-12-07T05:28:38;1.10;99.90
15357;DHT22;7778;48.792;9.260;2023-12-07T05:31:25;1.10;99.90
15357;DHT22;7778;48.792;9.260;2023-12-07T05:34:11;1.10;99.90
15357;DHT22;7778;48.792;9.260;2023-12-07T05:36:58;1.10;99.90
15357;DHT22;7778;48.792;9.260;2023-12-07T05:39:43;1.10;99.90
15357;DHT22;7778;48.792;9.260;2023-12-07T05:42:29;1.10;99.90
15357;DHT22;7778;48.792;9.260;2023-12-07T05:45:19;1.10;99.90
15357;DHT22;7778;48.792;9.260;2023-12-07T05:48:07;1.20;99.90
15357;DHT22;7778;48.792;9.260;2023-12-07T05:51:01;1.10;99.90
15357;DHT22;7778;48.792;9.260;2023-12-07T05:53:47;1.10;99.90
15357;DHT22;7778;48.792;9.260;2023-12-07T05:56:33;1.00;99.90
15357;DHT22;7778;48.792;9.260;2023-12-07T05:59:18;1.00;99.90
15357;DHT22;7778;48.792;9.260;2023-12-07T06:02:04;1.20;99.90
15357;DHT22;7778;48.792;9.260;2023-12-07T06:04:51;1.20;99.90
15357;DHT22;7778;48.792;9.260;2023-12-07T06:07:36;1.30;99.90
15357;DHT22;7778;48.792;9.260;2023-12-07T06:10:22;1.20;99.90
15357;DHT22;7778;48.792;9.260;2023-12-07T06:13:07;1.20;99.90
15357;DHT22;7778;48.792;9.260;2023-12-07T06:15:53;1.10;99.90
15357;DHT22;7778;48.792;9.260;2023-12-07T06:18:38;1.00;99.90
15357;DHT22;7778;48.792;9.260;2023-12-07T06:21:25;0.90;99.90
15357;DHT22;7778;48.792;9.260;2023-12-07T06:24:13;0.90;99.90
15357;DHT22;7778;48.792;9.260;2023-12-07T06:26:59;0.90;99.90
15357;DHT22;7778;48.792;9.260;2023-12-07T06:29:46;1.00;99.90
15357;DHT22;7778;48.792;9.260;2023-12-07T06:32:31;1.00;99.90
15357;DHT22;7778;48.792;9.260;2023-12-07T06:35:17;0.90;99.90
15357;DHT22;7778;48.792;9.260;2023-12-07T06:38:04;0.80;99.90
15357;DHT22;7778;48.792;9.260;2023-12-07T06:40:49;0.90;99.90
15357;DHT22;7778;48.792;9.260;2023-12-07T06:43:35;1.00;99.90
15357;DHT22;7778;48.792;9.260;2023-12-07T06:46:20;1.10;99.90
15357;DHT22;7778;48.792;9.260;2023-12-07T06:49:06;1.20;99.90
15357;DHT22;7778;48.792;9.260;2023-12-07T06:51:56;1.20;99.90
15357;DHT22;7778;48.792;9.260;2023-12-07T06:54:43;1.30;99.90
15357;DHT22;7778;48.792;9.260;2023-12-07T06:57:28;1.20;99.90
15357;DHT22;7778;48.792;9.260;2023-12-07T07:00:24;1.20;99.90
15357;DHT22;7778;48.792;9.260;2023-12-07T07:03:12;1.10;99.90
15357;DHT22;7778;48.792;9.260;2023-12-07T07:05:57;1.00;99.90
15357;DHT22;7778;48.792;9.260;2023-12-07T07:08:44;1.10;99.90
15357;DHT22;7778;48.792;9.260;2023-12-07T07:11:31;1.00;99.90
15357;DHT22;7778;48.792;9.260;2023-12-07T07:14:18;0.80;99.90
15357;DHT22;7778;48.792;9.260;2023-12-07T07:17:04;0.80;99.90
15357;DHT22;7778;48.792;9.260;2023-12-07T07:19:50;0.80;99.90
15357;DHT22;7778;48.792;9.260;2023-12-07T07:22:37;0.70;99.90
15357;DHT22;7778;48.792;9.260;2023-12-07T07:25:23;0.80;99.90
15357;DHT22;7778;48.792;9.260;2023-12-07T07:28:10;0.90;99.90
15357;DHT22;7778;48.792;9.260;2023-12-07T07:30:55;1.00;99.90
15357;DHT22;7778;48.792;9.260;2023-12-07T07:33:41;1.00;99.90
15357;DHT22;7778;48.792;9.260;2023-12-07T07:36:27;1.10;99.90
15357;DHT22;7778;48.792;9.260;2023-12-07T07:39:13;0.90;99.90
15357;DHT22;7778;48.792;9.260;2023-12-07T07:41:58;1.10;99.90
15357;DHT22;7778;48.792;9.260;2023-12-07T07:44:45;1.20;99.90
15357;DHT22;7778;48.792;9.260;2023-12-07T07:47:30;1.30;99.90
15357;DHT22;7778;48.792;9.260;2023-12-07T07:50:16;1.30;99.90
15357;DHT22;7778;48.792;9.260;2023-12-07T07:53:02;1.40;99.90
15357;DHT22;7778;48.792;9.260;2023-12-07T07:55:47;1.40;99.90
15357;DHT22;7778;48.792;9.260;2023-12-07T07:58:33;1.40;99.90
15357;DHT22;7778;48.792;9.260;2023-12-07T08:01:20;1.30;99.90
15357;DHT22;7778;48.792;9.260;2023-12-07T08:04:05;1.20;99.90
15357;DHT22;7778;48.792;9.260;2023-12-07T08:06:57;1.40;99.90
15357;DHT22;7778;48.792;9.260;2023-12-07T08:09:43;1.40;99.90
15357;DHT22;7778;48.792;9.260;2023-12-07T08:12:29;1.40;99.90
15357;DHT22;7778;48.792;9.260;2023-12-07T08:15:14;1.70;99.90
15357;DHT22;7778;48.792;9.260;2023-12-07T08:18:01;1.40;99.90
15357;DHT22;7778;48.792;9.260;2023-12-07T08:20:47;1.50;99.90
15357;DHT22;7778;48.792;9.260;2023-12-07T08:23:32;1.40;99.90
15357;DHT22;7778;48.792;9.260;2023-12-07T08:26:18;1.40;99.90
15357;DHT22;7778;48.792;9.260;2023-12-07T08:29:06;1.40;99.90
15357;DHT22;7778;48.792;9.260;2023-12-07T08:31:51;1.20;99.90
15357;DHT22;7778;48.792;9.260;2023-12-07T08:34:38;1.00;99.90
15357;DHT22;7778;48.792;9.260;2023-12-07T08:37:24;1.20;99.90
15357;DHT22;7778;48.792;9.260;2023-12-07T08:40:12;1.30;99.90
15357;DHT22;7778;48.792;9.260;2023-12-07T08:42:59;1.20;99.90
15357;DHT22;7778;48.792;9.260;2023-12-07T08:45:50;1.20;99.90
15357;DHT22;7778;48.792;9.260;2023-12-07T08:48:36;1.10;99.90
15357;DHT22;7778;48.792;9.260;2023-12-07T08:51:24;1.10;99.90
15357;DHT22;7778;48.792;9.260;2023-12-07T08:54:09;1.20;99.90
15357;DHT22;7778;48.792;9.260;2023-12-07T08:56:56;1.40;99.90
15357;DHT22;7778;48.792;9.260;2023-12-07T08:59:51;1.40;99.90
15357;DHT22;7778;48.792;9.260;2023-12-07T09:02:38;1.20;99.90
15357;DHT22;7778;48.792;9.260;2023-12-07T09:05:26;1.20;99.90
15357;DHT22;7778;48.792;9.260;2023-12-07T09:08:21;1.30;99.90
15357;DHT22;7778;48.792;9.260;2023-12-07T09:11:07;1.40;99.90
15357;DHT22;7778;48.792;9.260;2023-12-07T09:13:52;1.40;99.90
15357;DHT22;7778;48.792;9.260;2023-12-07T09:16:43;1.60;99.90
15357;DHT22;7778;48.792;9.260;2023-12-07T09:19:29;1.80;99.90
15357;DHT22;7778;48.792;9.260;2023-12-07T09:22:19;1.80;99.90
15357;DHT22;7778;48.792;9.260;2023-12-07T09:25:07;1.90;99.90
15357;DHT22;7778;48.792;9.260;2023-12-07T09:27:54;1.80;99.90
15357;DHT22;7778;48.792;9.260;2023-12-07T09:30:40;1.70;99.90
15357;DHT22;7778;48.792;9.260;2023-12-07T09:33:25;1.80;99.90
15357;DHT22;7778;48.792;9.260;2023-12-07T09:36:11;1.90;99.90
15357;DHT22;7778;48.792;9.260;2023-12-07T09:38:57;2.50;99.90
15357;DHT22;7778;48.792;9.260;2023-12-07T09:41:44;4.30;99.90
15357;DHT22;7778;48.792;9.260;2023-12-07T09:44:31;6.20;99.90
15357;DHT22;7778;48.792;9.260;2023-12-07T09:47:17;7.60;99.90
15357;DHT22;7778;48.792;9.260;2023-12-07T09:50:04;8.50;99.90
15357;DHT22;7778;48.792;9.260;2023-12-07T09:52:52;8.70;99.90
15357;DHT22;7778;48.792;9.260;2023-12-07T09:55:40;8.80;99.90
15357;DHT22;7778;48.792;9.260;2023-12-07T09:58:28;9.30;99.90
15357;DHT22;7778;48.792;9.260;2023-12-07T10:01:13;9.30;99.90
15357;DHT22;7778;48.792;9.260;2023-12-07T10:04:15;9.40;99.90
15357;DHT22;7778;48.792;9.260;2023-12-07T10:07:05;10.10;99.90
15357;DHT22;7778;48.792;9.260;2023-12-07T10:09:53;10.70;99.90
15357;DHT22;7778;48.792;9.260;2023-12-07T10:12:45;10.90;99.90
15357;DHT22;7778;48.792;9.260;2023-12-07T10:15:35;10.70;99.90
15357;DHT22;7778;48.792;9.260;2023-12-07T10:18:23;11.00;99.90
15357;DHT22;7778;48.792;9.260;2023-12-07T10:21:09;11.40;99.90
15357;DHT22;7778;48.792;9.260;2023-12-07T10:23:55;11.80;99.90
15357;DHT22;7778;48.792;9.260;2023-12-07T10:26:41;12.00;99.90
15357;DHT22;7778;48.792;9.260;2023-12-07T10:29:28;12.10;99.90
15357;DHT22;7778;48.792;9.260;2023-12-07T10:32:15;12.20;99.90
15357;DHT22;7778;48.792;9.260;2023-12-07T10:35:01;11.90;99.90
15357;DHT22;7778;48.792;9.260;2023-12-07T10:37:46;11.70;99.90
15357;DHT22;7778;48.792;9.260;2023-12-07T10:40:32;11.90;99.90
15357;DHT22;7778;48.792;9.260;2023-12-07T10:43:19;11.70;99.90
15357;DHT22;7778;48.792;9.260;2023-12-07T10:46:05;11.60;99.90
15357;DHT22;7778;48.792;9.260;2023-12-07T10:48:57;11.60;99.90
15357;DHT22;7778;48.792;9.260;2023-12-07T10:51:49;11.40;99.90
15357;DHT22;7778;48.792;9.260;2023-12-07T10:54:41;11.90;99.90
15357;DHT22;7778;48.792;9.260;2023-12-07T10:57:33;12.50;99.90
15357;DHT22;7778;48.792;9.260;2023-12-07T11:00:19;12.50;99.90
15357;DHT22;7778;48.792;9.260;2023-12-07T11:03:10;12.10;99.90
15357;DHT22;7778;48.792;9.260;2023-12-07T11:06:00;12.40;99.90
15357;DHT22;7778;48.792;9.260;2023-12-07T11:08:50;12.00;99.90
15357;DHT22;7778;48.792;9.260;2023-12-07T11:11:42;11.90;99.90
15357;DHT22;7778;48.792;9.260;2023-12-07T11:14:29;11.40;99.90
15357;DHT22;7778;48.792;9.260;2023-12-07T11:17:15;11.50;99.90
15357;DHT22;7778;48.792;9.260;2023-12-07T11:20:08;11.60;99.90
15357;DHT22;7778;48.792;9.260;2023-12-07T11:23:04;11.40;99.90
15357;DHT22;7778;48.792;9.260;2023-12-07T11:25:52;11.00;99.90
15357;DHT22;7778;48.792;9.260;2023-12-07T11:28:39;10.30;99.90
15357;DHT22;7778;48.792;9.260;2023-12-07T11:31:26;9.90;99.90
15357;DHT22;7778;48.792;9.260;2023-12-07T11:34:12;9.90;99.90
15357;DHT22;7778;48.792;9.260;2023-12-07T11:36:59;9.80;99.90
15357;DHT22;7778;48.792;9.260;2023-12-07T11:39:46;9.70;99.90
15357;DHT22;7778;48.792;9.260;2023-12-07T11:42:31;10.00;99.90
15357;DHT22;7778;48.792;9.260;2023-12-07T11:45:36;10.20;99.90
15357;DHT22;7778;48.792;9.260;2023-12-07T11:48:25;9.60;99.90
15357;DHT22;7778;48.792;9.260;2023-12-07T11:51:10;9.80;99.90
15357;DHT22;7778;48.792;9.260;2023-12-07T11:53:57;9.30;99.90
15357;DHT22;7778;48.792;9.260;2023-12-07T11:56:44;9.40;99.90
15357;DHT22;7778;48.792;9.260;2023-12-07T11:59:29;9.50;99.90
15357;DHT22;7778;48.792;9.260;2023-12-07T12:02:23;9.00;99.90
15357;DHT22;7778;48.792;9.260;2023-12-07T12:05:10;8.60;99.90
15357;DHT22;7778;48.792;9.260;2023-12-07T12:07:55;8.20;99.90
15357;DHT22;7778;48.792;9.260;2023-12-07T12:10:41;7.60;99.90
15357;DHT22;7778;48.792;9.260;2023-12-07T12:13:29;7.00;99.90
15357;DHT22;7778;48.792;9.260;2023-12-07T12:16:15;6.80;99.90
15357;DHT22;7778;48.792;9.260;2023-12-07T12:19:01;6.70;99.90
15357;DHT22;7778;48.792;9.260;2023-12-07T12:21:47;6.40;99.90
15357;DHT22;7778;48.792;9.260;2023-12-07T12:24:33;6.30;99.90
15357;DHT22;7778;48.792;9.260;2023-12-07T12:27:20;6.10;99.90
15357;DHT22;7778;48.792;9.260;2023-12-07T12:30:08;5.90;99.90
15357;DHT22;7778;48.792;9.260;2023-12-07T12:32:56;5.90;99.90
15357;DHT22;7778;48.792;9.260;2023-12-07T12:35:42;5.90;99.90
15357;DHT22;7778;48.792;9.260;2023-12-07T12:38:28;6.00;99.90
15357;DHT22;7778;48.792;9.260;2023-12-07T12:41:18;6.20;99.90
15357;DHT22;7778;48.792;9.260;2023-12-07T12:44:04;6.30;99.90
15357;DHT22;7778;48.792;9.260;2023-12-07T12:46:51;6.20;99.90
15357;DHT22;7778;48.792;9.260;2023-12-07T12:49:38;6.20;99.90
15357;DHT22;7778;48.792;9.260;2023-12-07T12:52:24;6.10;99.90
15357;DHT22;7778;48.792;9.260;2023-12-07T12:55:10;6.10;99.90
15357;DHT22;7778;48.792;9.260;2023-12-07T12:57:56;6.10;99.90
15357;DHT22;7778;48.792;9.260;2023-12-07T13:00:42;6.10;99.90
15357;DHT22;7778;48.792;9.260;2023-12-07T13:03:30;6.10;99.90
15357;DHT22;7778;48.792;9.260;2023-12-07T13:06:16;6.20;99.90
15357;DHT22;7778;48.792;9.260;2023-12-07T13:09:02;6.10;99.90
15357;DHT22;7778;48.792;9.260;2023-12-07T13:11:48;5.90;99.90
15357;DHT22;7778;48.792;9.260;2023-12-07T13:14:34;5.80;99.90
15357;DHT22;7778;48.792;9.260;2023-12-07T13:17:21;5.80;99.90
15357;DHT22;7778;48.792;9.260;2023-12-07T13:20:10;5.80;99.90
15357;DHT22;7778;48.792;9.260;2023-12-07T13:22:58;5.90;99.90
15357;DHT22;7778;48.792;9.260;2023-12-07T13:25:43;6.00;99.90
15357;DHT22;7778;48.792;9.260;2023-12-07T13:28:29;5.80;99.90
15357;DHT22;7778;48.792;9.260;2023-12-07T13:31:14;5.70;99.90
15357;DHT22;7778;48.792;9.260;2023-12-07T13:34:00;5.70;99.90
15357;DHT22;7778;48.792;9.260;2023-12-07T13:36:50;5.70;99.90
15357;DHT22;7778;48.792;9.260;2023-12-07T13:39:39;5.60;99.90
15357;DHT22;7778;48.792;9.260;2023-12-07T13:42:27;5.50;99.90
15357;DHT22;7778;48.792;9.260;2023-12-07T13:45:13;5.60;99.90
15357;DHT22;7778;48.792;9.260;2023-12-07T13:47:58;5.50;99.90
15357;DHT22;7778;48.792;9.260;2023-12-07T13:50:44;5.50;99.90
15357;DHT22;7778;48.792;9.260;2023-12-07T13:53:31;5.40;99.90
15357;DHT22;7778;48.792;9.260;2023-12-07T13:56:18;5.40;99.90
15357;DHT22;7778;48.792;9.260;2023-12-07T13:59:05;5.30;99.90
15357;DHT22;7778;48.792;9.260;2023-12-07T14:01:55;5.20;99.90
15357;DHT22;7778;48.792;9.260;2023-12-07T14:04:40;5.20;99.90
15357;DHT22;7778;48.792;9.260;2023-12-07T14:07:26;5.30;99.90
15357;DHT22;7778;48.792;9.260;2023-12-07T14:10:13;5.40;99.90
15357;DHT22;7778;48.792;9.260;2023-12-07T14:12:59;5.50;99.90
15357;DHT22;7778;48.792;9.260;2023-12-07T14:15:44;5.50;99.90
15357;DHT22;7778;48.792;9.260;2023-12-07T14:18:30;5.50;99.90
15357;DHT22;7778;48.792;9.260;2023-12-07T14:21:19;5.60;99.90
15357;DHT22;7778;48.792;9.260;2023-12-07T14:24:06;5.50;99.90
15357;DHT22;7778;48.792;9.260;2023-12-07T14:26:54;5.40;99.90
15357;DHT22;7778;48.792;9.260;2023-12-07T14:29:40;5.40;99.90
15357;DHT22;7778;48.792;9.260;2023-12-07T14:32:26;5.50;99.90
15357;DHT22;7778;48.792;9.260;2023-12-07T14:35:11;5.30;99.90
15357;DHT22;7778;48.792;9.260;2023-12-07T14:37:58;5.20;99.90
15357;DHT22;7778;48.792;9.260;2023-12-07T14:40:44;5.20;99.90
15357;DHT22;7778;48.792;9.260;2023-12-07T14:43:30;5.00;99.90
15357;DHT22;7778;48.792;9.260;2023-12-07T14:46:16;5.10;99.90
15357;DHT22;7778;48.792;9.260;2023-12-07T14:49:01;5.00;99.90
15357;DHT22;7778;48.792;9.260;2023-12-07T14:51:48;5.00;99.90
15357;DHT22;7778;48.792;9.260;2023-12-07T14:54:36;4.80;99.90
15357;DHT22;7778;48.792;9.260;2023-12-07T14:57:22;4.70;99.90
15357;DHT22;7778;48.792;9.260;2023-12-07T15:00:10;4.70;99.90
15357;DHT22;7778;48.792;9.260;2023-12-07T15:02:56;4.50;99.90
15357;DHT22;7778;48.792;9.260;2023-12-07T15:05:41;4.30;99.90
15357;DHT22;7778;48.792;9.260;2023-12-07T15:08:27;4.20;99.90
15357;DHT22;7778;48.792;9.260;2023-12-07T15:11:13;4.20;99.90
15357;DHT22;7778;48.792;9.260;2023-12-07T15:13:58;4.10;99.90
15357;DHT22;7778;48.792;9.260;2023-12-07T15:16:45;4.00;99.90
15357;DHT22;7778;48.792;9.260;2023-12-07T15:19:33;4.00;99.90
15357;DHT22;7778;48.792;9.260;2023-12-07T15:22:19;4.00;99.90
15357;DHT22;7778;48.792;9.260;2023-12-07T15:25:05;3.90;99.90
15357;DHT22;7778;48.792;9.260;2023-12-07T15:27:50;3.80;99.90
15357;DHT22;7778;48.792;9.260;2023-12-07T15:30:36;3.80;99.90
15357;DHT22;7778;48.792;9.260;2023-12-07T15:33:23;3.70;99.90
15357;DHT22;7778;48.792;9.260;2023-12-07T15:36:08;3.70;99.90
15357;DHT22;7778;48.792;9.260;2023-12-07T15:38:54;3.60;99.90
15357;DHT22;7778;48.792;9.260;2023-12-07T15:41:41;3.50;99.90
15357;DHT22;7778;48.792;9.260;2023-12-07T15:44:27;3.50;99.90
15357;DHT22;7778;48.792;9.260;2023-12-07T15:47:13;3.40;99.90
15357;DHT22;7778;48.792;9.260;2023-12-07T15:50:00;3.40;99.90
15357;DHT22;7778;48.792;9.260;2023-12-07T15:52:45;3.40;99.90
15357;DHT22;7778;48.792;9.260;2023-12-07T15:55:31;3.30;99.90
15357;DHT22;7778;48.792;9.260;2023-12-07T15:58:17;3.30;99.90
15357;DHT22;7778;48.792;9.260;2023-12-07T16:01:03;3.30;99.90
15357;DHT22;7778;48.792;9.260;2023-12-07T16:03:48;3.30;99.90
15357;DHT22;7778;48.792;9.260;2023-12-07T16:06:35;3.20;99.90
15357;DHT22;7778;48.792;9.260;2023-12-07T16:09:21;3.10;99.90
15357;DHT22;7778;48.792;9.260;2023-12-07T16:12:06;3.10;99.90
15357;DHT22;7778;48.792;9.260;2023-12-07T16:14:52;3.10;99.90
15357;DHT22;7778;48.792;9.260;2023-12-07T16:17:40;3.00;99.90
15357;DHT22;7778;48.792;9.260;2023-12-07T16:20:25;3.10;99.90
15357;DHT22;7778;48.792;9.260;2023-12-07T16:23:12;3.10;99.90
15357;DHT22;7778;48.792;9.260;2023-12-07T16:25:58;3.00;99.90
15357;DHT22;7778;48.792;9.260;2023-12-07T16:28:43;3.00;99.90
15357;DHT22;7778;48.792;9.260;2023-12-07T16:31:29;2.90;99.90
15357;DHT22;7778;48.792;9.260;2023-12-07T16:34:15;2.80;99.90
15357;DHT22;7778;48.792;9.260;2023-12-07T16:37:00;2.80;99.90
15357;DHT22;7778;48.792;9.260;2023-12-07T16:39:47;2.80;99.90
15357;DHT22;7778;48.792;9.260;2023-12-07T16:42:33;2.80;99.90
15357;DHT22;7778;48.792;9.260;2023-12-07T16:45:21;2.80;99.90
15357;DHT22;7778;48.792;9.260;2023-12-07T16:48:06;2.80;99.90
15357;DHT22;7778;48.792;9.260;2023-12-07T16:50:53;2.80;99.90
15357;DHT22;7778;48.792;9.260;2023-12-07T16:53:40;2.80;99.90
15357;DHT22;7778;48.792;9.260;2023-12-07T16:56:27;2.70;99.90
15357;DHT22;7778;48.792;9.260;2023-12-07T16:59:13;2.70;99.90
15357;DHT22;7778;48.792;9.260;2023-12-07T17:02:00;2.70;99.90
15357;DHT22;7778;48.792;9.260;2023-12-07T17:04:47;2.70;99.90
15357;DHT22;7778;48.792;9.260;2023-12-07T17:07:33;2.70;99.90
15357;DHT22;7778;48.792;9.260;2023-12-07T17:10:18;2.60;99.90
15357;DHT22;7778;48.792;9.260;2023-12-07T17:13:05;2.60;99.90
15357;DHT22;7778;48.792;9.260;2023-12-07T17:15:50;2.60;99.90
15357;DHT22;7778;48.792;9.260;2023-12-07T17:18:36;2.60;99.90
15357;DHT22;7778;48.792;9.260;2023-12-07T17:21:22;2.50;99.90
15357;DHT22;7778;48.792;9.260;2023-12-07T17:24:08;2.50;99.90
15357;DHT22;7778;48.792;9.260;2023-12-07T17:26:53;2.50;99.90
15357;DHT22;7778;48.792;9.260;2023-12-07T17:29:40;2.50;99.90
15357;DHT22;7778;48.792;9.260;2023-12-07T17:32:25;2.50;99.90
15357;DHT22;7778;48.792;9.260;2023-12-07T17:35:11;2.50;99.90
15357;DHT22;7778;48.792;9.260;2023-12-07T17:37:57;2.50;99.90
15357;DHT22;7778;48.792;9.260;2023-12-07T17:40:42;2.50;99.90
15357;DHT22;7778;48.792;9.260;2023-12-07T17:43:28;2.40;99.90
15357;DHT22;7778;48.792;9.260;2023-12-07T17:46:15;2.40;99.90
15357;DHT22;7778;48.792;9.260;2023-12-07T17:49:01;2.40;99.90
15357;DHT22;7778;48.792;9.260;2023-12-07T17:51:46;2.40;99.90
15357;DHT22;7778;48.792;9.260;2023-12-07T17:54:32;2.20;99.90
15357;DHT22;7778;48.792;9.260;2023-12-07T17:57:17;2.00;99.90
15357;DHT22;7778;48.792;9.260;2023-12-07T18:00:04;2.00;99.90
15357;DHT22;7778;48.792;9.260;2023-12-07T18:02:52;2.00;99.90
15357;DHT22;7778;48.792;9.260;2023-12-07T18:05:37;2.00;99.90